sensor_id;sensor_type;location;lat;lon;timestamp;temperature;humidity
54788;DHT22;59598;48.112;16.280;2022-10-16T00:02:28;10.60;99.90
54788;DHT22;59598;48.112;16.280;2022-10-16T00:05:03;10.50;99.90
54788;DHT22;59598;48.112;16.280;2022-10-16T00:07:37;10.60;99.90
54788;DHT22;59598;48.112;16.280;2022-10-16T00:10:10;10.60;99.90
54788;DHT22;59598;48.112;16.280;2022-10-16T00:12:41;10.70;99.90
54788;DHT22;59598;48.112;16.280;2022-10-16T00:15:15;10.70;99.90
54788;DHT22;59598;48.112;16.280;2022-10-16T00:17:47;10.70;99.90
54788;DHT22;59598;48.112;16.280;2022-10-16T00:20:18;10.80;99.90
54788;DHT22;59598;48.112;16.280;2022-10-16T00:22:51;10.80;99.90
54788;DHT22;59598;48.112;16.280;2022-10-16T00:25:24;10.90;99.90
54788;DHT22;59598;48.112;16.280;2022-10-16T00:27:55;10.90;99.90
54788;DHT22;59598;48.112;16.280;2022-10-16T00:30:29;11.00;99.90
54788;DHT22;59598;48.112;16.280;2022-10-16T00:33:00;11.00;99.90
54788;DHT22;59598;48.112;16.280;2022-10-16T00:35:34;11.00;99.90
54788;DHT22;59598;48.112;16.280;2022-10-16T00:38:08;11.10;99.90
54788;DHT22;59598;48.112;16.280;2022-10-16T00:40:39;11.10;99.90
54788;DHT22;59598;48.112;16.280;2022-10-16T00:46:13;11.20;99.90
54788;DHT22;59598;48.112;16.280;2022-10-16T00:49:05;11.20;99.90
54788;DHT22;59598;48.112;16.280;2022-10-16T00:51:44;11.20;99.90
54788;DHT22;59598;48.112;16.280;2022-10-16T00:54:26;11.20;99.90
54788;DHT22;59598;48.112;16.280;2022-10-16T00:57:04;11.20;99.90
54788;DHT22;59598;48.112;16.280;2022-10-16T00:59:43;11.20;99.90
54788;DHT22;59598;48.112;16.280;2022-10-16T01:02:15;11.30;99.90
54788;DHT22;59598;48.112;16.280;2022-10-16T01:04:53;11.30;99.90
54788;DHT22;59598;48.112;16.280;2022-10-16T01:07:45;11.40;99.90
54788;DHT22;59598;48.112;16.280;2022-10-16T01:10:37;11.30;99.90
54788;DHT22;59598;48.112;16.280;2022-10-16T01:13:22;11.30;99.90
54788;DHT22;59598;48.112;16.280;2022-10-16T01:16:00;11.30;99.90
54788;DHT22;59598;48.112;16.280;2022-10-16T01:18:44;11.30;99.90
54788;DHT22;59598;48.112;16.280;2022-10-16T01:21:35;11.30;99.90
54788;DHT22;59598;48.112;16.280;2022-10-16T01:30:12;11.30;99.90
54788;DHT22;59598;48.112;16.280;2022-10-16T01:33:27;11.40;99.90
54788;DHT22;59598;48.112;16.280;2022-10-16T01:36:05;11.40;99.90
54788;DHT22;59598;48.112;16.280;2022-10-16T01:38:39;11.40;99.90
54788;DHT22;59598;48.112;16.280;2022-10-16T01:44:32;11.50;99.90
54788;DHT22;59598;48.112;16.280;2022-10-16T01:47:06;11.50;99.90
54788;DHT22;59598;48.112;16.280;2022-10-16T01:49:40;11.60;99.90
54788;DHT22;59598;48.112;16.280;2022-10-16T01:52:20;11.60;99.90
54788;DHT22;59598;48.112;16.280;2022-10-16T01:54:55;11.60;99.90
54788;DHT22;59598;48.112;16.280;2022-10-16T01:57:28;11.60;99.90
54788;DHT22;59598;48.112;16.280;2022-10-16T02:00:07;11.70;99.90
54788;DHT22;59598;48.112;16.280;2022-10-16T02:02:47;11.70;99.90
54788;DHT22;59598;48.112;16.280;2022-10-16T02:07:54;11.60;99.90
54788;DHT22;59598;48.112;16.280;2022-10-16T02:10:25;11.60;99.90
54788;DHT22;59598;48.112;16.280;2022-10-16T02:13:09;11.50;99.90
54788;DHT22;59598;48.112;16.280;2022-10-16T02:15:41;11.50;99.90
54788;DHT22;59598;48.112;16.280;2022-10-16T02:18:12;11.50;99.90
54788;DHT22;59598;48.112;16.280;2022-10-16T02:20:53;11.60;99.90
54788;DHT22;59598;48.112;16.280;2022-10-16T02:26:51;11.60;99.90
54788;DHT22;59598;48.112;16.280;2022-10-16T02:29:27;11.60;99.90
54788;DHT22;59598;48.112;16.280;2022-10-16T02:32:03;11.60;99.90
54788;DHT22;59598;48.112;16.280;2022-10-16T02:34:36;11.60;99.90
54788;DHT22;59598;48.112;16.280;2022-10-16T02:37:09;11.60;99.90
54788;DHT22;59598;48.112;16.280;2022-10-16T02:39:45;11.60;99.90
54788;DHT22;59598;48.112;16.280;2022-10-16T02:42:17;11.70;99.90
54788;DHT22;59598;48.112;16.280;2022-10-16T02:44:49;11.70;99.90
54788;DHT22;59598;48.112;16.280;2022-10-16T02:47:20;11.70;99.90
54788;DHT22;59598;48.112;16.280;2022-10-16T02:49:52;11.70;99.90
54788;DHT22;59598;48.112;16.280;2022-10-16T02:52:23;11.60;99.90
54788;DHT22;59598;48.112;16.280;2022-10-16T02:54:55;11.50;99.90
54788;DHT22;59598;48.112;16.280;2022-10-16T02:57:26;11.50;99.90
54788;DHT22;59598;48.112;16.280;2022-10-16T02:59:57;11.50;99.90
54788;DHT22;59598;48.112;16.280;2022-10-16T03:02:28;11.50;99.90
54788;DHT22;59598;48.112;16.280;2022-10-16T03:05:06;11.50;99.90
54788;DHT22;59598;48.112;16.280;2022-10-16T03:07:37;11.40;99.90
54788;DHT22;59598;48.112;16.280;2022-10-16T03:10:12;11.40;99.90
54788;DHT22;59598;48.112;16.280;2022-10-16T03:12:43;11.40;99.90
54788;DHT22;59598;48.112;16.280;2022-10-16T03:15:14;11.40;99.90
54788;DHT22;59598;48.112;16.280;2022-10-16T03:17:48;11.30;99.90
54788;DHT22;59598;48.112;16.280;2022-10-16T03:20:19;11.30;99.90
54788;DHT22;59598;48.112;16.280;2022-10-16T03:22:52;11.20;99.90
54788;DHT22;59598;48.112;16.280;2022-10-16T03:25:23;11.20;99.90
54788;DHT22;59598;48.112;16.280;2022-10-16T03:27:55;11.20;99.90
54788;DHT22;59598;48.112;16.280;2022-10-16T03:30:26;11.10;99.90
54788;DHT22;59598;48.112;16.280;2022-10-16T03:32:57;11.10;99.90
54788;DHT22;59598;48.112;16.280;2022-10-16T03:35:28;11.10;99.90
54788;DHT22;59598;48.112;16.280;2022-10-16T03:38:02;11.10;99.90
54788;DHT22;59598;48.112;16.280;2022-10-16T03:40:33;11.00;99.90
54788;DHT22;59598;48.112;16.280;2022-10-16T03:43:04;11.00;99.90
54788;DHT22;59598;48.112;16.280;2022-10-16T03:45:35;11.00;99.90
54788;DHT22;59598;48.112;16.280;2022-10-16T03:48:07;11.10;99.90
54788;DHT22;59598;48.112;16.280;2022-10-16T03:50:38;11.10;99.90
54788;DHT22;59598;48.112;16.280;2022-10-16T03:53:09;11.00;99.90
54788;DHT22;59598;48.112;16.280;2022-10-16T03:55:46;11.00;99.90
54788;DHT22;59598;48.112;16.280;2022-10-16T03:58:17;11.00;99.90
54788;DHT22;59598;48.112;16.280;2022-10-16T04:00:51;11.00;99.90
54788;DHT22;59598;48.112;16.280;2022-10-16T04:03:22;11.10;99.90
54788;DHT22;59598;48.112;16.280;2022-10-16T04:05:54;11.00;99.90
54788;DHT22;59598;48.112;16.280;2022-10-16T04:08:27;11.00;99.90
54788;DHT22;59598;48.112;16.280;2022-10-16T04:10:59;11.10;99.90
54788;DHT22;59598;48.112;16.280;2022-10-16T04:13:38;11.00;99.90
54788;DHT22;59598;48.112;16.280;2022-10-16T04:16:15;11.00;99.90
54788;DHT22;59598;48.112;16.280;2022-10-16T04:18:46;10.90;99.90
54788;DHT22;59598;48.112;16.280;2022-10-16T04:21:20;10.90;99.90
54788;DHT22;59598;48.112;16.280;2022-10-16T04:23:53;10.90;99.90
54788;DHT22;59598;48.112;16.280;2022-10-16T04:26:24;10.90;99.90
54788;DHT22;59598;48.112;16.280;2022-10-16T04:28:55;10.90;99.90
54788;DHT22;59598;48.112;16.280;2022-10-16T04:31:29;10.90;99.90
54788;DHT22;59598;48.112;16.280;2022-10-16T04:34:06;10.90;99.90
54788;DHT22;59598;48.112;16.280;2022-10-16T04:36:37;10.90;99.90
54788;DHT22;59598;48.112;16.280;2022-10-16T04:39:17;10.90;99.90
54788;DHT22;59598;48.112;16.280;2022-10-16T04:41:50;10.80;99.90
54788;DHT22;59598;48.112;16.280;2022-10-16T04:44:24;10.80;99.90
54788;DHT22;59598;48.112;16.280;2022-10-16T04:47:01;10.80;99.90
54788;DHT22;59598;48.112;16.280;2022-10-16T04:49:32;10.70;99.90
54788;DHT22;59598;48.112;16.280;2022-10-16T04:52:07;10.70;99.90
54788;DHT22;59598;48.112;16.280;2022-10-16T04:54:40;10.70;99.90
54788;DHT22;59598;48.112;16.280;2022-10-16T04:57:11;10.70;99.90
54788;DHT22;59598;48.112;16.280;2022-10-16T04:59:42;10.60;99.90
54788;DHT22;59598;48.112;16.280;2022-10-16T05:02:13;10.60;99.90
54788;DHT22;59598;48.112;16.280;2022-10-16T05:04:45;10.60;99.90
54788;DHT22;59598;48.112;16.280;2022-10-16T05:07:16;10.50;99.90
54788;DHT22;59598;48.112;16.280;2022-10-16T05:09:47;10.50;99.90
54788;DHT22;59598;48.112;16.280;2022-10-16T05:12:18;10.50;99.90
54788;DHT22;59598;48.112;16.280;2022-10-16T05:14:50;10.50;99.90
54788;DHT22;59598;48.112;16.280;2022-10-16T05:17:29;10.50;99.90
54788;DHT22;59598;48.112;16.280;2022-10-16T05:20:00;10.50;99.90
54788;DHT22;59598;48.112;16.280;2022-10-16T05:22:31;10.50;99.90
54788;DHT22;59598;48.112;16.280;2022-10-16T05:25:06;10.60;99.90
54788;DHT22;59598;48.112;16.280;2022-10-16T05:27:37;10.70;99.90
54788;DHT22;59598;48.112;16.280;2022-10-16T05:30:15;10.70;99.90
54788;DHT22;59598;48.112;16.280;2022-10-16T05:32:50;10.70;99.90
54788;DHT22;59598;48.112;16.280;2022-10-16T05:35:21;10.80;99.90
54788;DHT22;59598;48.112;16.280;2022-10-16T05:37:55;10.70;99.90
54788;DHT22;59598;48.112;16.280;2022-10-16T05:40:26;10.80;99.90
54788;DHT22;59598;48.112;16.280;2022-10-16T05:43:01;10.90;99.90
54788;DHT22;59598;48.112;16.280;2022-10-16T05:45:32;10.90;99.90
54788;DHT22;59598;48.112;16.280;2022-10-16T05:48:03;10.90;99.90
54788;DHT22;59598;48.112;16.280;2022-10-16T05:50:37;10.90;99.90
54788;DHT22;59598;48.112;16.280;2022-10-16T05:53:08;10.90;99.90
54788;DHT22;59598;48.112;16.280;2022-10-16T05:55:42;11.00;99.90
54788;DHT22;59598;48.112;16.280;2022-10-16T05:58:13;11.10;99.90
54788;DHT22;59598;48.112;16.280;2022-10-16T06:00:44;11.20;99.90
54788;DHT22;59598;48.112;16.280;2022-10-16T06:03:20;11.20;99.90
54788;DHT22;59598;48.112;16.280;2022-10-16T06:05:51;11.20;99.90
54788;DHT22;59598;48.112;16.280;2022-10-16T06:08:31;11.30;99.90
54788;DHT22;59598;48.112;16.280;2022-10-16T06:11:07;11.40;99.90
54788;DHT22;59598;48.112;16.280;2022-10-16T06:13:44;11.30;99.90
54788;DHT22;59598;48.112;16.280;2022-10-16T06:16:19;11.30;99.90
54788;DHT22;59598;48.112;16.280;2022-10-16T06:18:51;11.30;99.90
54788;DHT22;59598;48.112;16.280;2022-10-16T06:21:29;11.30;99.90
54788;DHT22;59598;48.112;16.280;2022-10-16T06:24:00;11.40;99.90
54788;DHT22;59598;48.112;16.280;2022-10-16T06:26:32;11.40;99.90
54788;DHT22;59598;48.112;16.280;2022-10-16T06:29:05;11.40;99.90
54788;DHT22;59598;48.112;16.280;2022-10-16T06:31:38;11.50;99.90
54788;DHT22;59598;48.112;16.280;2022-10-16T06:34:10;11.60;99.90
54788;DHT22;59598;48.112;16.280;2022-10-16T06:36:46;11.40;99.90
54788;DHT22;59598;48.112;16.280;2022-10-16T06:39:17;11.40;99.90
54788;DHT22;59598;48.112;16.280;2022-10-16T06:41:48;11.50;99.90
54788;DHT22;59598;48.112;16.280;2022-10-16T06:44:19;11.50;99.90
54788;DHT22;59598;48.112;16.280;2022-10-16T06:46:50;11.50;99.90
54788;DHT22;59598;48.112;16.280;2022-10-16T06:49:22;11.50;99.90
54788;DHT22;59598;48.112;16.280;2022-10-16T06:51:53;11.40;99.90
54788;DHT22;59598;48.112;16.280;2022-10-16T06:54:25;11.50;99.90
54788;DHT22;59598;48.112;16.280;2022-10-16T06:56:56;11.50;99.90
54788;DHT22;59598;48.112;16.280;2022-10-16T06:59:31;11.40;99.90
54788;DHT22;59598;48.112;16.280;2022-10-16T07:02:06;11.50;99.90
54788;DHT22;59598;48.112;16.280;2022-10-16T07:04:38;11.60;99.90
54788;DHT22;59598;48.112;16.280;2022-10-16T07:07:11;11.80;99.90
54788;DHT22;59598;48.112;16.280;2022-10-16T07:09:44;12.00;99.90
54788;DHT22;59598;48.112;16.280;2022-10-16T07:12:18;12.10;99.90
54788;DHT22;59598;48.112;16.280;2022-10-16T07:14:50;12.20;99.90
54788;DHT22;59598;48.112;16.280;2022-10-16T07:17:25;12.40;99.90
54788;DHT22;59598;48.112;16.280;2022-10-16T07:19:58;12.50;99.90
54788;DHT22;59598;48.112;16.280;2022-10-16T07:22:30;12.40;99.90
54788;DHT22;59598;48.112;16.280;2022-10-16T07:25:01;12.40;99.90
54788;DHT22;59598;48.112;16.280;2022-10-16T07:27:32;12.50;99.90
54788;DHT22;59598;48.112;16.280;2022-10-16T07:30:04;12.60;99.90
54788;DHT22;59598;48.112;16.280;2022-10-16T07:32:39;12.80;99.90
54788;DHT22;59598;48.112;16.280;2022-10-16T07:35:10;12.90;99.90
54788;DHT22;59598;48.112;16.280;2022-10-16T07:37:47;12.80;99.90
54788;DHT22;59598;48.112;16.280;2022-10-16T07:40:21;12.80;99.90
54788;DHT22;59598;48.112;16.280;2022-10-16T07:42:54;12.80;99.90
54788;DHT22;59598;48.112;16.280;2022-10-16T07:45:26;13.00;99.90
54788;DHT22;59598;48.112;16.280;2022-10-16T07:47:57;13.20;99.90
54788;DHT22;59598;48.112;16.280;2022-10-16T07:50:28;13.30;99.90
54788;DHT22;59598;48.112;16.280;2022-10-16T07:53:02;13.40;99.90
54788;DHT22;59598;48.112;16.280;2022-10-16T07:55:36;13.30;99.90
54788;DHT22;59598;48.112;16.280;2022-10-16T07:58:09;13.30;99.90
54788;DHT22;59598;48.112;16.280;2022-10-16T08:00:42;13.30;99.90
54788;DHT22;59598;48.112;16.280;2022-10-16T08:03:13;13.40;99.90
54788;DHT22;59598;48.112;16.280;2022-10-16T08:05:47;13.60;99.90
54788;DHT22;59598;48.112;16.280;2022-10-16T08:08:21;13.40;99.90
54788;DHT22;59598;48.112;16.280;2022-10-16T08:10:54;13.50;99.90
54788;DHT22;59598;48.112;16.280;2022-10-16T08:13:26;13.50;99.90
54788;DHT22;59598;48.112;16.280;2022-10-16T08:15:57;13.30;99.90
54788;DHT22;59598;48.112;16.280;2022-10-16T08:18:31;13.50;99.90
54788;DHT22;59598;48.112;16.280;2022-10-16T08:21:02;13.70;99.90
54788;DHT22;59598;48.112;16.280;2022-10-16T08:23:35;13.90;99.90
54788;DHT22;59598;48.112;16.280;2022-10-16T08:26:07;13.80;99.90
54788;DHT22;59598;48.112;16.280;2022-10-16T08:28:49;14.00;99.90
54788;DHT22;59598;48.112;16.280;2022-10-16T08:31:24;14.00;99.90
54788;DHT22;59598;48.112;16.280;2022-10-16T08:33:55;13.90;99.90
54788;DHT22;59598;48.112;16.280;2022-10-16T08:36:26;13.90;99.90
54788;DHT22;59598;48.112;16.280;2022-10-16T08:39:05;13.90;99.90
54788;DHT22;59598;48.112;16.280;2022-10-16T08:47:13;14.00;99.90
54788;DHT22;59598;48.112;16.280;2022-10-16T08:52:33;14.20;99.90
54788;DHT22;59598;48.112;16.280;2022-10-16T08:55:09;14.20;99.90
54788;DHT22;59598;48.112;16.280;2022-10-16T08:57:47;14.30;99.90
54788;DHT22;59598;48.112;16.280;2022-10-16T09:00:19;14.60;99.90
54788;DHT22;59598;48.112;16.280;2022-10-16T09:06:06;14.40;99.90
54788;DHT22;59598;48.112;16.280;2022-10-16T09:12:38;14.70;99.90
54788;DHT22;59598;48.112;16.280;2022-10-16T09:21:13;14.70;99.90
54788;DHT22;59598;48.112;16.280;2022-10-16T09:23:47;14.60;99.90
54788;DHT22;59598;48.112;16.280;2022-10-16T09:26:18;14.40;99.90
54788;DHT22;59598;48.112;16.280;2022-10-16T09:28:53;14.60;99.90
54788;DHT22;59598;48.112;16.280;2022-10-16T09:31:24;14.90;99.90
54788;DHT22;59598;48.112;16.280;2022-10-16T09:34:00;15.10;99.90
54788;DHT22;59598;48.112;16.280;2022-10-16T09:36:42;15.10;99.90
54788;DHT22;59598;48.112;16.280;2022-10-16T09:39:15;15.10;99.90
54788;DHT22;59598;48.112;16.280;2022-10-16T09:41:46;15.10;99.90
54788;DHT22;59598;48.112;16.280;2022-10-16T09:44:28;15.20;99.90
54788;DHT22;59598;48.112;16.280;2022-10-16T09:47:18;15.40;99.90
54788;DHT22;59598;48.112;16.280;2022-10-16T09:49:56;15.30;99.90
54788;DHT22;59598;48.112;16.280;2022-10-16T09:52:33;15.50;99.90
54788;DHT22;59598;48.112;16.280;2022-10-16T09:55:14;15.70;99.90
54788;DHT22;59598;48.112;16.280;2022-10-16T09:57:53;15.90;99.90
54788;DHT22;59598;48.112;16.280;2022-10-16T10:00:27;15.90;99.90
54788;DHT22;59598;48.112;16.280;2022-10-16T10:03:00;15.50;99.90
54788;DHT22;59598;48.112;16.280;2022-10-16T10:05:32;15.50;99.90
54788;DHT22;59598;48.112;16.280;2022-10-16T10:08:03;15.70;99.90
54788;DHT22;59598;48.112;16.280;2022-10-16T10:10:42;15.70;99.90
54788;DHT22;59598;48.112;16.280;2022-10-16T10:13:21;15.40;99.90
54788;DHT22;59598;48.112;16.280;2022-10-16T10:15:53;15.20;99.90
54788;DHT22;59598;48.112;16.280;2022-10-16T10:18:25;15.40;99.90
54788;DHT22;59598;48.112;16.280;2022-10-16T10:20:59;15.40;99.90
54788;DHT22;59598;48.112;16.280;2022-10-16T10:23:31;15.30;99.90
54788;DHT22;59598;48.112;16.280;2022-10-16T10:31:47;15.40;99.90
54788;DHT22;59598;48.112;16.280;2022-10-16T10:34:35;15.40;99.90
54788;DHT22;59598;48.112;16.280;2022-10-16T10:37:41;15.70;99.90
54788;DHT22;59598;48.112;16.280;2022-10-16T10:43:30;15.70;99.90
54788;DHT22;59598;48.112;16.280;2022-10-16T11:07:03;16.30;99.90
54788;DHT22;59598;48.112;16.280;2022-10-16T11:09:42;16.30;99.90
54788;DHT22;59598;48.112;16.280;2022-10-16T11:12:26;16.20;99.90
54788;DHT22;59598;48.112;16.280;2022-10-16T11:15:10;16.00;99.90
54788;DHT22;59598;48.112;16.280;2022-10-16T11:17:54;16.10;99.90
54788;DHT22;59598;48.112;16.280;2022-10-16T11:20:52;15.90;99.90
54788;DHT22;59598;48.112;16.280;2022-10-16T11:26:21;16.00;99.90
54788;DHT22;59598;48.112;16.280;2022-10-16T11:28:55;16.60;99.90
54788;DHT22;59598;48.112;16.280;2022-10-16T11:31:38;16.50;99.90
54788;DHT22;59598;48.112;16.280;2022-10-16T11:34:37;17.00;99.90
54788;DHT22;59598;48.112;16.280;2022-10-16T11:39:54;17.50;99.90
54788;DHT22;59598;48.112;16.280;2022-10-16T11:42:39;18.30;99.90
54788;DHT22;59598;48.112;16.280;2022-10-16T11:48:14;18.70;99.90
54788;DHT22;59598;48.112;16.280;2022-10-16T11:50:53;19.60;99.90
54788;DHT22;59598;48.112;16.280;2022-10-16T11:56:15;21.50;99.90
54788;DHT22;59598;48.112;16.280;2022-10-16T11:59:06;22.60;99.90
54788;DHT22;59598;48.112;16.280;2022-10-16T12:04:45;24.90;99.90
54788;DHT22;59598;48.112;16.280;2022-10-16T12:07:26;26.30;99.90
54788;DHT22;59598;48.112;16.280;2022-10-16T12:10:19;27.20;99.90
54788;DHT22;59598;48.112;16.280;2022-10-16T12:12:51;28.40;99.90
54788;DHT22;59598;48.112;16.280;2022-10-16T12:15:28;28.90;99.90
54788;DHT22;59598;48.112;16.280;2022-10-16T12:17:59;29.60;99.90
54788;DHT22;59598;48.112;16.280;2022-10-16T12:20:33;29.80;99.90
54788;DHT22;59598;48.112;16.280;2022-10-16T12:23:07;30.00;99.90
54788;DHT22;59598;48.112;16.280;2022-10-16T12:25:55;30.30;99.90
54788;DHT22;59598;48.112;16.280;2022-10-16T12:28:31;29.10;99.90
54788;DHT22;59598;48.112;16.280;2022-10-16T12:31:08;28.70;99.90
54788;DHT22;59598;48.112;16.280;2022-10-16T12:33:43;29.10;99.90
54788;DHT22;59598;48.112;16.280;2022-10-16T12:36:31;29.60;99.90
54788;DHT22;59598;48.112;16.280;2022-10-16T12:39:03;29.20;99.90
54788;DHT22;59598;48.112;16.280;2022-10-16T12:41:35;29.40;99.90
54788;DHT22;59598;48.112;16.280;2022-10-16T12:44:26;28.20;99.90
54788;DHT22;59598;48.112;16.280;2022-10-16T12:47:49;28.50;99.90
54788;DHT22;59598;48.112;16.280;2022-10-16T12:50:42;28.60;99.90
54788;DHT22;59598;48.112;16.280;2022-10-16T12:53:25;29.90;99.90
54788;DHT22;59598;48.112;16.280;2022-10-16T12:56:16;30.40;99.90
54788;DHT22;59598;48.112;16.280;2022-10-16T13:02:00;30.50;99.90
54788;DHT22;59598;48.112;16.280;2022-10-16T13:10:28;30.50;99.90
54788;DHT22;59598;48.112;16.280;2022-10-16T13:22:20;30.50;99.90
54788;DHT22;59598;48.112;16.280;2022-10-16T13:27:41;30.10;99.90
54788;DHT22;59598;48.112;16.280;2022-10-16T13:30:18;29.70;99.90
54788;DHT22;59598;48.112;16.280;2022-10-16T13:33:00;29.70;99.90
54788;DHT22;59598;48.112;16.280;2022-10-16T13:35:35;29.90;99.90
54788;DHT22;59598;48.112;16.280;2022-10-16T13:38:19;29.40;99.90
54788;DHT22;59598;48.112;16.280;2022-10-16T13:46:10;26.80;99.90
54788;DHT22;59598;48.112;16.280;2022-10-16T13:49:05;26.10;99.90
54788;DHT22;59598;48.112;16.280;2022-10-16T13:51:40;26.00;99.90
54788;DHT22;59598;48.112;16.280;2022-10-16T13:54:11;25.70;99.90
54788;DHT22;59598;48.112;16.280;2022-10-16T13:56:45;25.30;99.90
54788;DHT22;59598;48.112;16.280;2022-10-16T13:59:45;25.90;99.90
54788;DHT22;59598;48.112;16.280;2022-10-16T14:02:33;27.00;99.90
54788;DHT22;59598;48.112;16.280;2022-10-16T14:05:09;27.60;99.90
54788;DHT22;59598;48.112;16.280;2022-10-16T14:07:49;28.10;99.90
54788;DHT22;59598;48.112;16.280;2022-10-16T14:10:32;28.30;99.90
54788;DHT22;59598;48.112;16.280;2022-10-16T14:13:07;28.60;99.90
54788;DHT22;59598;48.112;16.280;2022-10-16T14:15:39;28.70;99.90
54788;DHT22;59598;48.112;16.280;2022-10-16T14:18:19;29.10;99.90
54788;DHT22;59598;48.112;16.280;2022-10-16T14:20:51;28.90;99.90
54788;DHT22;59598;48.112;16.280;2022-10-16T14:23:30;29.00;99.90
54788;DHT22;59598;48.112;16.280;2022-10-16T14:28:42;29.00;99.90
54788;DHT22;59598;48.112;16.280;2022-10-16T14:31:26;29.30;99.90
54788;DHT22;59598;48.112;16.280;2022-10-16T14:33:59;29.10;99.90
54788;DHT22;59598;48.112;16.280;2022-10-16T14:36:30;28.50;99.90
54788;DHT22;59598;48.112;16.280;2022-10-16T14:39:13;28.30;99.90
54788;DHT22;59598;48.112;16.280;2022-10-16T14:41:49;27.80;99.90
54788;DHT22;59598;48.112;16.280;2022-10-16T14:44:31;27.00;99.90
54788;DHT22;59598;48.112;16.280;2022-10-16T14:47:13;26.20;99.90
54788;DHT22;59598;48.112;16.280;2022-10-16T14:49:47;25.60;99.90
54788;DHT22;59598;48.112;16.280;2022-10-16T14:52:21;25.00;99.90
54788;DHT22;59598;48.112;16.280;2022-10-16T14:54:53;24.40;99.90
54788;DHT22;59598;48.112;16.280;2022-10-16T14:57:27;24.00;99.90
54788;DHT22;59598;48.112;16.280;2022-10-16T15:00:19;23.40;99.90
54788;DHT22;59598;48.112;16.280;2022-10-16T15:02:51;22.90;99.90
54788;DHT22;59598;48.112;16.280;2022-10-16T15:05:26;22.30;99.90
54788;DHT22;59598;48.112;16.280;2022-10-16T15:07:58;21.90;99.90
54788;DHT22;59598;48.112;16.280;2022-10-16T15:10:33;21.70;99.90
54788;DHT22;59598;48.112;16.280;2022-10-16T15:13:08;21.50;99.90
54788;DHT22;59598;48.112;16.280;2022-10-16T15:15:46;21.30;99.90
54788;DHT22;59598;48.112;16.280;2022-10-16T15:18:18;20.90;99.90
54788;DHT22;59598;48.112;16.280;2022-10-16T15:20:53;20.80;99.90
54788;DHT22;59598;48.112;16.280;2022-10-16T15:23:24;20.70;99.90
54788;DHT22;59598;48.112;16.280;2022-10-16T15:25:56;20.40;99.90
54788;DHT22;59598;48.112;16.280;2022-10-16T15:28:27;20.30;99.90
54788;DHT22;59598;48.112;16.280;2022-10-16T15:30:59;20.20;99.90
54788;DHT22;59598;48.112;16.280;2022-10-16T15:33:30;20.00;99.90
54788;DHT22;59598;48.112;16.280;2022-10-16T15:36:05;19.70;99.90
54788;DHT22;59598;48.112;16.280;2022-10-16T15:38:38;19.50;99.90
54788;DHT22;59598;48.112;16.280;2022-10-16T15:41:09;19.30;99.90
54788;DHT22;59598;48.112;16.280;2022-10-16T15:43:43;19.10;99.90
54788;DHT22;59598;48.112;16.280;2022-10-16T15:46:19;18.90;99.90
54788;DHT22;59598;48.112;16.280;2022-10-16T15:48:57;18.70;99.90
54788;DHT22;59598;48.112;16.280;2022-10-16T15:51:28;18.40;99.90
54788;DHT22;59598;48.112;16.280;2022-10-16T15:54:09;18.30;99.90
54788;DHT22;59598;48.112;16.280;2022-10-16T15:56:40;18.10;99.90
54788;DHT22;59598;48.112;16.280;2022-10-16T15:59:11;18.00;99.90
54788;DHT22;59598;48.112;16.280;2022-10-16T16:01:42;17.80;99.90
54788;DHT22;59598;48.112;16.280;2022-10-16T16:04:14;17.60;99.90
54788;DHT22;59598;48.112;16.280;2022-10-16T16:06:45;17.50;99.90
54788;DHT22;59598;48.112;16.280;2022-10-16T16:09:17;17.30;99.90
54788;DHT22;59598;48.112;16.280;2022-10-16T16:11:50;17.20;99.90
54788;DHT22;59598;48.112;16.280;2022-10-16T16:14:23;17.00;99.90
54788;DHT22;59598;48.112;16.280;2022-10-16T16:16:57;16.80;99.90
54788;DHT22;59598;48.112;16.280;2022-10-16T16:19:28;16.60;99.90
54788;DHT22;59598;48.112;16.280;2022-10-16T16:22:00;16.50;99.90
54788;DHT22;59598;48.112;16.280;2022-10-16T16:24:31;16.30;99.90
54788;DHT22;59598;48.112;16.280;2022-10-16T16:27:04;16.30;99.90
54788;DHT22;59598;48.112;16.280;2022-10-16T16:29:35;16.10;99.90
54788;DHT22;59598;48.112;16.280;2022-10-16T16:32:09;16.10;99.90
54788;DHT22;59598;48.112;16.280;2022-10-16T16:34:43;16.00;99.90
54788;DHT22;59598;48.112;16.280;2022-10-16T16:37:20;16.00;99.90
54788;DHT22;59598;48.112;16.280;2022-10-16T16:39:53;15.90;99.90
54788;DHT22;59598;48.112;16.280;2022-10-16T16:42:27;15.90;99.90
54788;DHT22;59598;48.112;16.280;2022-10-16T16:45:00;15.80;99.90
54788;DHT22;59598;48.112;16.280;2022-10-16T16:47:34;15.70;99.90
54788;DHT22;59598;48.112;16.280;2022-10-16T16:50:08;15.60;99.90
54788;DHT22;59598;48.112;16.280;2022-10-16T16:52:39;15.50;99.90
54788;DHT22;59598;48.112;16.280;2022-10-16T16:55:10;15.40;99.90
54788;DHT22;59598;48.112;16.280;2022-10-16T16:57:41;15.30;99.90
54788;DHT22;59598;48.112;16.280;2022-10-16T17:00:13;15.20;99.90
54788;DHT22;59598;48.112;16.280;2022-10-16T17:02:50;15.20;99.90
54788;DHT22;59598;48.112;16.280;2022-10-16T17:05:24;15.20;99.90
54788;DHT22;59598;48.112;16.280;2022-10-16T17:07:56;15.30;99.90
54788;DHT22;59598;48.112;16.280;2022-10-16T17:10:27;15.10;99.90
54788;DHT22;59598;48.112;16.280;2022-10-16T17:12:59;15.00;99.90
54788;DHT22;59598;48.112;16.280;2022-10-16T17:15:30;15.00;99.90
54788;DHT22;59598;48.112;16.280;2022-10-16T17:18:01;14.90;99.90
54788;DHT22;59598;48.112;16.280;2022-10-16T17:20:35;14.80;99.90
54788;DHT22;59598;48.112;16.280;2022-10-16T17:23:07;14.80;99.90
54788;DHT22;59598;48.112;16.280;2022-10-16T17:25:39;14.80;99.90
54788;DHT22;59598;48.112;16.280;2022-10-16T17:28:11;14.80;99.90
54788;DHT22;59598;48.112;16.280;2022-10-16T17:30:43;14.70;99.90
54788;DHT22;59598;48.112;16.280;2022-10-16T17:33:14;14.60;99.90
54788;DHT22;59598;48.112;16.280;2022-10-16T17:35:46;14.60;99.90
54788;DHT22;59598;48.112;16.280;2022-10-16T17:38:17;14.50;99.90
54788;DHT22;59598;48.112;16.280;2022-10-16T17:40:51;14.50;99.90
54788;DHT22;59598;48.112;16.280;2022-10-16T17:43:22;14.50;99.90
54788;DHT22;59598;48.112;16.280;2022-10-16T17:45:53;14.40;99.90
54788;DHT22;59598;48.112;16.280;2022-10-16T17:48:27;14.40;99.90
54788;DHT22;59598;48.112;16.280;2022-10-16T17:50:58;14.30;99.90
54788;DHT22;59598;48.112;16.280;2022-10-16T17:53:29;14.30;99.90
54788;DHT22;59598;48.112;16.280;2022-10-16T17:56:07;14.10;99.90
54788;DHT22;59598;48.112;16.280;2022-10-16T17:58:39;14.00;99.90